Time;durP1;ratioP1;P1;durP2;ratioP2;P2;SDS_P1;SDS_P2;PMS_P1;PMS_P2;Temp;Humidity;BMP_temperature;BMP_pressure;BME280_temperature;BME280_humidity;BME280_pressure;Samples;Min_cycle;Max_cycle;Signal;HPM_P1;HPM_P2
2023/04/27 00:02:46;;;;;;;3.05;1.65;;;;;;;5.78;100.00;101687.22;6277405;28;20044;-80
2023/04/27 00:05:47;;;;;;;5.13;2.22;;;;;;;5.81;100.00;101684.53;6300024;28;20049;-80
2023/04/27 00:08:48;;;;;;;4.63;2.17;;;;;;;5.73;100.00;101684.72;6299416;28;20061;-79
2023/04/27 00:11:51;;;;;;;3.13;1.73;;;;;;;5.64;99.43;101679.66;6299940;28;20118;-80
2023/04/27 00:14:52;;;;;;;4.65;2.28;;;;;;;5.66;100.00;101688.28;6299784;28;20051;-80
2023/04/27 00:17:54;;;;;;;4.65;2.20;;;;;;;5.66;99.78;101682.22;6291602;28;20048;-79
2023/04/27 00:20:55;;;;;;;10.65;2.28;;;;;;;5.62;100.00;101684.03;6298586;28;20052;-80
2023/04/27 00:23:56;;;;;;;3.83;2.03;;;;;;;5.54;100.00;101680.69;6299815;28;20045;-80
2023/04/27 00:27:00;;;;;;;4.47;1.95;;;;;;;5.47;100.00;101674.72;6295641;28;20428;-80
2023/04/27 00:30:01;;;;;;;9.02;1.90;;;;;;;5.54;100.00;101683.28;6299656;28;20052;-80
2023/04/27 00:33:03;;;;;;;5.57;1.83;;;;;;;5.59;100.00;101677.13;6297941;28;20052;-79
2023/04/27 00:36:05;;;;;;;6.13;2.00;;;;;;;5.60;100.00;101672.78;6299486;28;20052;-80
2023/04/27 00:39:06;;;;;;;4.20;1.98;;;;;;;5.51;100.00;101678.16;6299575;28;20051;-80
2023/04/27 00:42:12;;;;;;;2.78;1.80;;;;;;;5.46;100.00;101677.38;6291306;28;20040;-80
2023/04/27 00:45:14;;;;;;;11.77;2.13;;;;;;;5.47;100.00;101673.88;6299647;28;20048;-80
2023/04/27 00:48:15;;;;;;;9.05;2.90;;;;;;;5.43;100.00;101680.03;6299302;28;20043;-80
2023/04/27 00:51:16;;;;;;;2.47;1.92;;;;;;;5.45;100.00;101680.84;6289732;28;20041;-80
2023/04/27 00:54:19;;;;;;;6.38;2.08;;;;;;;5.37;100.00;101682.75;6302194;28;20044;-80
2023/04/27 00:57:22;;;;;;;7.63;1.73;;;;;;;5.32;100.00;101685.41;6304176;28;20059;-80
2023/04/27 01:00:24;;;;;;;5.43;2.25;;;;;;;5.29;100.00;101683.72;6286962;28;20131;-80
2023/04/27 01:03:26;;;;;;;6.15;2.38;;;;;;;5.35;100.00;101688.81;6295698;28;20052;-80
2023/04/27 01:06:28;;;;;;;3.97;2.03;;;;;;;5.33;100.00;101693.22;6303780;28;20342;-80
2023/04/27 01:09:30;;;;;;;4.80;2.35;;;;;;;5.34;100.00;101692.31;6295228;28;20044;-80
2023/04/27 01:12:32;;;;;;;7.35;1.73;;;;;;;5.29;100.00;101691.53;6295325;28;20170;-79
2023/04/27 01:15:34;;;;;;;3.88;1.92;;;;;;;5.30;100.00;101703.66;6295413;28;20052;-80
2023/04/27 01:18:36;;;;;;;7.63;1.70;;;;;;;5.28;100.00;101702.84;6302398;28;20385;-79
2023/04/27 01:21:37;;;;;;;5.53;2.33;;;;;;;5.24;100.00;101703.78;6286630;28;20118;-80
2023/04/27 01:24:40;;;;;;;2.90;1.80;;;;;;;5.20;100.00;101709.91;6303352;28;20053;-80
2023/04/27 01:27:42;;;;;;;6.38;1.90;;;;;;;5.21;100.00;101708.16;6303011;28;20349;-80
2023/04/27 01:30:43;;;;;;;7.03;2.33;;;;;;;5.18;100.00;101716.03;6303210;28;20067;-79
2023/04/27 01:33:44;;;;;;;6.97;2.30;;;;;;;4.90;100.00;101724.25;6300980;28;20448;-79
2023/04/27 01:36:46;;;;;;;6.78;1.83;;;;;;;4.97;100.00;101722.44;6295063;28;20208;-80
2023/04/27 01:39:48;;;;;;;6.38;2.90;;;;;;;5.06;100.00;101725.75;6278175;28;20049;-79
2023/04/27 01:42:50;;;;;;;3.55;1.95;;;;;;;5.11;100.00;101733.50;6289366;28;20163;-79
2023/04/27 01:45:51;;;;;;;2.50;1.55;;;;;;;5.09;100.00;101730.94;6291641;28;20434;-79
2023/04/27 01:48:52;;;;;;;8.40;2.67;;;;;;;5.02;100.00;101731.91;6277847;28;20049;-79
2023/04/27 01:51:54;;;;;;;5.40;2.28;;;;;;;5.01;100.00;101747.56;6294739;28;20048;-79
2023/04/27 01:54:57;;;;;;;3.75;1.88;;;;;;;5.00;100.00;101746.72;6299010;28;20361;-79
2023/04/27 01:57:58;;;;;;;3.90;2.38;;;;;;;4.95;100.00;101755.44;6298275;28;20041;-79
2023/04/27 02:00:59;;;;;;;3.13;1.83;;;;;;;4.91;100.00;101759.00;6302370;28;20051;-79
2023/04/27 02:04:01;;;;;;;3.13;1.98;;;;;;;4.76;100.00;101765.25;6281838;28;20056;-79
2023/04/27 02:07:03;;;;;;;8.85;2.83;;;;;;;4.65;100.00;101757.59;6298537;28;20055;-80
2023/04/27 02:10:07;;;;;;;4.10;2.10;;;;;;;4.62;100.00;101757.63;6294120;28;20044;-79
2023/04/27 02:13:09;;;;;;;4.25;2.47;;;;;;;4.60;100.00;101755.94;6293768;28;20045;-80
2023/04/27 02:16:10;;;;;;;5.15;2.08;;;;;;;4.57;100.00;101762.03;6302532;28;20041;-79
2023/04/27 02:19:12;;;;;;;2.75;1.67;;;;;;;4.55;100.00;101771.59;6296255;28;20060;-79
2023/04/27 02:22:13;;;;;;;3.13;1.70;;;;;;;4.43;100.00;101764.78;6295440;28;20326;-80
2023/04/27 02:25:16;;;;;;;5.00;2.20;;;;;;;4.38;100.00;101769.19;6279214;28;20051;-79
2023/04/27 02:28:17;;;;;;;3.53;2.25;;;;;;;4.40;100.00;101772.63;6293542;28;20049;-79
2023/04/27 02:31:19;;;;;;;4.65;2.05;;;;;;;4.43;100.00;101771.75;6290287;28;20045;-79
2023/04/27 02:34:21;;;;;;;4.15;1.90;;;;;;;4.40;100.00;101767.41;6300857;28;20456;-79
2023/04/27 02:37:22;;;;;;;10.30;2.05;;;;;;;4.40;100.00;101775.22;6285950;28;20044;-79
2023/04/27 02:40:25;;;;;;;4.97;2.15;;;;;;;4.43;100.00;101766.53;6300715;28;20044;-80
2023/04/27 02:43:26;;;;;;;4.72;2.30;;;;;;;4.40;100.00;101769.16;6301604;28;20045;-79
2023/04/27 02:46:27;;;;;;;3.33;1.75;;;;;;;4.40;100.00;101763.94;6300553;28;20053;-79
2023/04/27 02:49:29;;;;;;;5.97;2.58;;;;;;;4.35;100.00;101764.00;6290351;28;20047;-79
2023/04/27 02:52:30;;;;;;;4.72;2.53;;;;;;;4.25;100.00;101759.78;6283267;28;20056;-80
2023/04/27 02:55:33;;;;;;;3.58;2.30;;;;;;;4.22;100.00;101760.66;6300665;28;20060;-79
2023/04/27 02:58:34;;;;;;;9.88;2.47;;;;;;;4.27;100.00;101755.41;6291380;28;20438;-80
2023/04/27 03:01:36;;;;;;;4.97;2.65;;;;;;;4.26;100.00;101764.09;6301216;28;20076;-80
2023/04/27 03:04:37;;;;;;;5.45;2.55;;;;;;;4.29;100.00;101751.94;6291771;28;20045;-79
2023/04/27 03:07:38;;;;;;;6.57;2.67;;;;;;;4.12;100.00;101753.84;6289799;28;20322;-80
2023/04/27 03:10:41;;;;;;;7.68;2.40;;;;;;;4.18;100.00;101755.50;6297441;28;20048;-79
2023/04/27 03:13:43;;;;;;;3.50;2.17;;;;;;;4.26;100.00;101758.91;6297788;28;20392;-79
2023/04/27 03:16:44;;;;;;;8.25;2.38;;;;;;;4.26;100.00;101757.16;6292367;28;20437;-79
2023/04/27 03:19:47;;;;;;;6.78;2.13;;;;;;;4.31;100.00;101763.19;6292198;28;20048;-79
2023/04/27 03:22:48;;;;;;;5.30;2.38;;;;;;;4.30;100.00;101761.44;6291999;28;20053;-79
2023/04/27 03:25:52;;;;;;;6.53;2.45;;;;;;;4.33;100.00;101761.44;6300696;28;20056;-80
2023/04/27 03:28:53;;;;;;;5.22;2.85;;;;;;;4.25;100.00;101765.84;6292213;28;20048;-80
2023/04/27 03:31:55;;;;;;;9.68;2.80;;;;;;;4.24;100.00;101764.13;6294159;28;20052;-79
2023/04/27 03:34:56;;;;;;;13.35;3.53;;;;;;;4.20;100.00;101767.66;6276686;28;20041;-79
2023/04/27 03:37:57;;;;;;;3.08;2.08;;;;;;;4.25;100.00;101767.59;6280443;28;20456;-79
2023/04/27 03:41:00;;;;;;;5.75;3.22;;;;;;;4.25;100.00;101770.19;6257318;28;20033;-79
2023/04/27 03:44:02;;;;;;;6.60;3.22;;;;;;;4.19;100.00;101772.88;6259816;28;20474;-78
2023/04/27 03:47:07;;;;;;;6.95;2.55;;;;;;;4.14;100.00;101772.91;6271089;28;20075;-79
2023/04/27 03:50:10;;;;;;;9.13;3.22;;;;;;;4.12;100.00;101773.81;6273386;28;20072;-80
2023/04/27 03:53:11;;;;;;;4.22;2.22;;;;;;;4.06;100.00;101778.19;6282903;28;20052;-79
2023/04/27 03:56:14;;;;;;;4.55;2.40;;;;;;;4.03;100.00;101775.59;6272469;28;20041;-79
2023/04/27 03:59:15;;;;;;;6.97;2.42;;;;;;;4.06;100.00;101783.41;6275074;28;20041;-79
2023/04/27 04:02:17;;;;;;;6.55;2.92;;;;;;;4.02;100.00;101775.63;6272120;28;20041;-80
2023/04/27 04:05:18;;;;;;;12.02;3.45;;;;;;;3.75;100.00;101779.34;6270372;28;20056;-80
2023/04/27 04:08:20;;;;;;;5.97;3.38;;;;;;;3.82;100.00;101775.84;6280932;28;20341;-80
2023/04/27 04:11:22;;;;;;;6.30;3.10;;;;;;;3.87;100.00;101773.19;6274877;28;20692;-79
2023/04/27 04:14:24;;;;;;;9.13;2.88;;;;;;;3.86;100.00;101784.44;6273626;28;20056;-79
2023/04/27 04:17:25;;;;;;;7.07;3.30;;;;;;;3.72;100.00;101779.38;6282012;28;20040;-80
2023/04/27 04:20:27;;;;;;;4.57;2.70;;;;;;;3.71;100.00;101781.09;6271791;28;20037;-79
2023/04/27 04:23:28;;;;;;;6.70;2.78;;;;;;;3.80;100.00;101777.56;6273374;28;20066;-80
2023/04/27 04:26:31;;;;;;;7.88;3.13;;;;;;;3.83;100.00;101787.09;6285491;28;20040;-79
2023/04/27 04:29:32;;;;;;;13.98;3.22;;;;;;;3.72;100.00;101785.41;6281482;28;20041;-79
2023/04/27 04:32:36;;;;;;;7.07;3.03;;;;;;;3.68;100.00;101790.66;6304141;28;20099;-80
2023/04/27 04:35:37;;;;;;;9.70;3.08;;;;;;;3.67;100.00;101794.13;6295652;28;20049;-80
2023/04/27 04:38:39;;;;;;;6.72;2.90;;;;;;;3.75;100.00;101793.22;6297298;28;20350;-79
2023/04/27 04:41:42;;;;;;;9.23;3.67;;;;;;;3.83;100.00;101787.94;6303394;28;20181;-80
2023/04/27 04:44:43;;;;;;;4.85;2.90;;;;;;;3.89;100.00;101789.63;6297865;28;20048;-80
2023/04/27 04:47:46;;;;;;;6.40;3.05;;;;;;;3.89;100.00;101792.22;6294018;28;20057;-79
2023/04/27 04:50:47;;;;;;;5.63;2.85;;;;;;;3.83;100.00;101790.53;6290032;28;20049;-80
2023/04/27 04:53:49;;;;;;;7.13;2.95;;;;;;;3.79;100.00;101799.25;6302565;28;20045;-80
2023/04/27 04:56:51;;;;;;;5.68;3.53;;;;;;;3.85;100.00;101798.31;6304364;28;20053;-80
2023/04/27 04:59:53;;;;;;;11.40;4.13;;;;;;;3.86;100.00;101805.25;6304045;28;20060;-80
2023/04/27 05:02:54;;;;;;;14.45;3.22;;;;;;;3.87;100.00;101799.19;6304369;28;20049;-79
2023/04/27 05:05:56;;;;;;;5.72;2.97;;;;;;;3.93;100.00;101809.53;6303619;28;20051;-80
2023/04/27 05:08:57;;;;;;;6.30;2.60;;;;;;;3.97;100.00;101799.09;6303809;28;20048;-80
2023/04/27 05:12:01;;;;;;;10.68;3.65;;;;;;;3.92;100.00;101803.47;6295472;28;20045;-80
2023/04/27 05:15:03;;;;;;;6.85;3.13;;;;;;;3.94;100.00;101803.44;6290837;28;20357;-79
2023/04/27 05:18:04;;;;;;;10.05;3.13;;;;;;;4.01;100.00;101811.19;6291455;28;20138;-80
2023/04/27 05:21:12;;;;;;;10.90;3.55;;;;;;;3.80;100.00;101812.22;6282544;28;20437;-80
2023/04/27 05:24:14;;;;;;;5.88;2.85;;;;;;;3.96;100.00;101812.97;6294708;28;20044;-81
2023/04/27 05:27:17;;;;;;;10.02;3.65;;;;;;;4.04;100.00;101823.28;6295347;28;20044;-80
2023/04/27 05:30:18;;;;;;;6.30;3.28;;;;;;;4.09;100.00;101826.72;6294943;28;20337;-81
2023/04/27 05:33:21;;;;;;;7.40;2.83;;;;;;;4.18;100.00;101826.66;6302963;28;20071;-80
2023/04/27 05:36:22;;;;;;;7.85;2.88;;;;;;;4.05;100.00;101825.91;6302662;28;20053;-80
2023/04/27 05:39:23;;;;;;;7.93;2.90;;;;;;;4.03;100.00;101835.44;6303123;28;20051;-80
2023/04/27 05:42:26;;;;;;;17.88;4.10;;;;;;;3.84;100.00;101830.41;6286745;28;20344;-79
2023/04/27 05:45:27;;;;;;;9.10;3.55;;;;;;;3.88;100.00;101840.78;6290433;28;20345;-80
2023/04/27 05:48:29;;;;;;;8.23;3.67;;;;;;;3.85;100.00;101832.13;6285223;28;20045;-79
2023/04/27 05:51:32;;;;;;;7.88;3.78;;;;;;;3.86;100.00;101836.44;6284108;28;20417;-80
2023/04/27 05:54:33;;;;;;;8.40;3.45;;;;;;;3.93;100.00;101836.38;6288049;28;20048;-80
2023/04/27 05:57:36;;;;;;;9.25;3.40;;;;;;;4.06;100.00;101853.63;6284658;28;20041;-79
2023/04/27 06:00:37;;;;;;;9.20;3.17;;;;;;;4.08;100.00;101838.84;6288124;28;20044;-78
2023/04/27 06:03:39;;;;;;;6.00;2.92;;;;;;;4.25;100.00;101850.84;6286733;28;20057;-79
2023/04/27 06:06:40;;;;;;;5.72;3.05;;;;;;;4.21;100.00;101856.97;6290953;28;20047;-79
2023/04/27 06:09:42;;;;;;;11.38;3.10;;;;;;;4.24;100.00;101855.19;6294917;28;20055;-79
2023/04/27 06:12:45;;;;;;;5.55;3.25;;;;;;;4.18;100.00;101851.78;6290510;28;20052;-80
2023/04/27 06:15:47;;;;;;;14.18;3.85;;;;;;;4.24;100.00;101859.53;6300819;28;20053;-80
2023/04/27 06:18:49;;;;;;;5.75;2.90;;;;;;;4.27;100.00;101859.50;6292737;28;20110;-78
2023/04/27 06:21:50;;;;;;;8.15;3.58;;;;;;;4.36;100.00;101861.16;6291532;28;20037;-79
2023/04/27 06:24:52;;;;;;;7.75;3.63;;;;;;;4.54;100.00;101867.06;6298043;28;20052;-80
2023/04/27 06:27:55;;;;;;;7.00;3.30;;;;;;;4.65;100.00;101866.06;6302259;28;20051;-80
2023/04/27 06:30:56;;;;;;;8.57;3.13;;;;;;;4.67;100.00;101866.91;6290229;28;20052;-80
2023/04/27 06:33:57;;;;;;;5.40;2.60;;;;;;;4.76;100.00;101866.81;6289210;28;20051;-80
2023/04/27 06:36:59;;;;;;;5.78;3.15;;;;;;;4.79;100.00;101875.44;6301662;28;20447;-80
2023/04/27 06:40:00;;;;;;;10.38;3.70;;;;;;;4.83;100.00;101871.06;6301960;28;20044;-80
2023/04/27 06:43:03;;;;;;;5.40;2.65;;;;;;;4.84;100.00;101872.78;6288912;28;20049;-80
2023/04/27 06:46:05;;;;;;;6.40;3.05;;;;;;;4.94;100.00;101878.75;6277149;28;20452;-79
2023/04/27 06:49:06;;;;;;;5.07;2.22;;;;;;;5.00;100.00;101886.50;6296563;28;20071;-80
2023/04/27 06:52:07;;;;;;;7.05;3.10;;;;;;;5.12;100.00;101877.66;6301410;28;20178;-80
2023/04/27 06:55:09;;;;;;;7.63;2.78;;;;;;;5.17;100.00;101870.66;6287812;28;20354;-80
2023/04/27 06:58:12;;;;;;;6.15;2.80;;;;;;;5.27;100.00;101872.28;6283458;28;20052;-80
2023/04/27 07:01:13;;;;;;;5.22;2.45;;;;;;;5.23;100.00;101870.59;6287263;28;20045;-80
2023/04/27 07:04:15;;;;;;;7.50;2.40;;;;;;;5.32;100.00;101873.06;6298599;28;20356;-80
2023/04/27 07:07:17;;;;;;;6.88;2.38;;;;;;;5.43;100.00;101875.53;6301303;28;20055;-80
2023/04/27 07:10:18;;;;;;;7.18;2.75;;;;;;;5.43;100.00;101875.53;6301448;28;20059;-80
2023/04/27 07:13:21;;;;;;;6.53;1.98;;;;;;;5.51;100.00;101874.53;6300775;28;20044;-80
2023/04/27 07:16:23;;;;;;;5.15;2.45;;;;;;;5.60;100.00;101878.75;6290643;28;20539;-80
2023/04/27 07:19:24;;;;;;;6.53;3.35;;;;;;;5.68;100.00;101881.22;6300623;28;20448;-80
2023/04/27 07:22:25;;;;;;;8.32;2.22;;;;;;;5.74;100.00;101870.72;6300967;28;20330;-80
2023/04/27 07:25:27;;;;;;;5.00;2.15;;;;;;;5.79;100.00;101874.97;6300493;28;20044;-80
2023/04/27 07:28:30;;;;;;;5.57;2.08;;;;;;;5.90;100.00;101868.72;6300449;28;20036;-80
2023/04/27 07:31:32;;;;;;;8.13;1.85;;;;;;;5.91;100.00;101876.56;6292580;28;20044;-81
2023/04/27 07:34:34;;;;;;;4.10;2.60;;;;;;;5.92;100.00;101869.63;6299893;28;20170;-80
2023/04/27 07:37:37;;;;;;;2.30;1.45;;;;;;;5.98;98.70;101870.38;6292970;28;20051;-81
2023/04/27 07:40:38;;;;;;;3.92;1.40;;;;;;;6.07;94.67;101867.59;6299569;28;20357;-80
2023/04/27 07:43:42;;;;;;;3.30;1.38;;;;;;;6.10;90.35;101864.09;6284878;28;20052;-81
2023/04/27 07:46:43;;;;;;;4.28;1.20;;;;;;;6.26;90.89;101865.53;6291799;28;20139;-80
2023/04/27 07:49:46;;;;;;;1.52;1.10;;;;;;;6.32;90.11;101867.19;6286537;28;20059;-81
2023/04/27 07:52:47;;;;;;;4.07;1.40;;;;;;;6.42;88.81;101866.16;6298292;28;20127;-81
2023/04/27 07:55:48;;;;;;;2.45;0.80;;;;;;;6.48;86.52;101862.56;6277944;28;20048;-81
2023/04/27 07:58:51;;;;;;;2.22;1.13;;;;;;;6.50;82.35;101866.00;6291437;28;20053;-80
2023/04/27 08:01:52;;;;;;;2.50;1.10;;;;;;;6.48;76.41;101860.78;6283698;28;20044;-81
2023/04/27 08:04:54;;;;;;;2.15;0.90;;;;;;;6.50;78.61;101851.19;6299849;28;20044;-81
2023/04/27 08:07:55;;;;;;;3.85;1.02;;;;;;;6.51;78.37;101858.13;6300009;28;20044;-80
2023/04/27 08:10:56;;;;;;;2.47;1.05;;;;;;;6.53;77.89;101850.25;6300065;28;20436;-81
2023/04/27 08:13:59;;;;;;;2.38;0.73;;;;;;;6.55;76.03;101844.13;6291502;28;20429;-80
2023/04/27 08:17:01;;;;;;;5.70;0.80;;;;;;;6.63;75.67;101850.94;6297918;28;20048;-81
2023/04/27 08:20:02;;;;;;;2.20;1.52;;;;;;;6.75;78.11;101848.09;6291903;28;20054;-80
2023/04/27 08:23:04;;;;;;;1.55;1.00;;;;;;;6.82;79.18;101850.56;6291724;28;20052;-80
2023/04/27 08:26:05;;;;;;;5.22;1.20;;;;;;;6.91;82.11;101846.06;6299392;28;20036;-80
2023/04/27 08:29:08;;;;;;;1.88;0.93;;;;;;;6.97;76.13;101851.16;6299641;28;20044;-82
2023/04/27 08:32:10;;;;;;;1.35;0.93;;;;;;;7.03;73.10;101845.78;6286138;28;20041;-81
2023/04/27 08:35:12;;;;;;;1.83;1.20;;;;;;;7.02;71.98;101852.78;6280165;28;20056;-80
2023/04/27 08:38:13;;;;;;;1.73;0.70;;;;;;;7.05;70.79;101852.72;6277618;28;20103;-81
2023/04/27 08:41:18;;;;;;;3.33;1.00;;;;;;;7.09;72.70;101843.06;6279473;28;20425;-81
2023/04/27 08:44:21;;;;;;;2.42;1.05;;;;;;;7.15;72.82;101842.06;6277039;28;20135;-81
2023/04/27 08:47:22;;;;;;;1.55;0.85;;;;;;;7.20;71.49;101838.44;6275897;28;20049;-81
2023/04/27 08:50:24;;;;;;;2.38;1.00;;;;;;;7.22;73.00;101834.06;6272877;28;20045;-85
2023/04/27 08:53:25;;;;;;;1.33;0.98;;;;;;;7.15;71.33;101831.63;6290158;28;20037;-81
2023/04/27 08:56:28;;;;;;;1.25;0.90;;;;;;;7.17;73.54;101835.91;6290453;28;20163;-81
2023/04/27 08:59:33;;;;;;;2.20;1.30;;;;;;;7.21;76.50;101824.47;6297986;28;20048;-80
2023/04/27 09:02:34;;;;;;;1.38;0.70;;;;;;;7.32;77.05;101826.88;6299483;28;20047;-81
2023/04/27 09:05:36;;;;;;;3.90;1.35;;;;;;;7.44;74.93;101825.72;6282729;28;20045;-81
2023/04/27 09:08:45;;;;;;;1.25;1.10;;;;;;;7.52;74.67;101831.63;6283859;28;20047;-81
2023/04/27 09:11:46;;;;;;;1.60;0.90;;;;;;;7.59;66.07;101833.22;6279727;28;20055;-81
2023/04/27 09:14:58;;;;;;;1.52;0.95;;;;;;;7.61;63.86;101829.66;6282333;28;20056;-81
2023/04/27 09:18:00;;;;;;;3.45;1.00;;;;;;;7.67;65.36;101831.28;6281709;28;20045;-82
2023/04/27 09:21:03;;;;;;;4.40;1.20;;;;;;;7.70;62.39;101841.66;6282104;28;20071;-81
2023/04/27 09:24:10;;;;;;;3.60;1.13;;;;;;;7.87;61.27;101849.97;6281843;28;20037;-80
2023/04/27 09:27:19;;;;;;;1.25;0.90;;;;;;;7.86;60.74;101844.78;6285691;28;20348;-81
2023/04/27 09:30:22;;;;;;;3.83;1.58;;;;;;;7.91;63.53;101837.69;6288546;28;20045;-81
2023/04/27 09:33:24;;;;;;;2.47;1.20;;;;;;;8.00;66.48;101841.84;6293250;28;20037;-81
2023/04/27 09:36:26;;;;;;;2.63;1.30;;;;;;;8.01;66.00;101839.16;6295731;28;20437;-81
2023/04/27 09:39:28;;;;;;;3.30;1.40;;;;;;;8.06;62.96;101832.06;6302680;28;20091;-81
2023/04/27 09:42:31;;;;;;;1.55;0.88;;;;;;;8.10;64.83;101828.47;6294476;28;20170;-81
2023/04/27 09:45:34;;;;;;;4.13;2.10;;;;;;;8.30;62.31;101838.41;6288908;28;20056;-80
2023/04/27 09:48:38;;;;;;;4.88;1.73;;;;;;;8.44;62.09;101834.59;6283946;28;20055;-80
2023/04/27 09:51:39;;;;;;;2.50;1.33;;;;;;;8.38;58.98;101831.25;6280080;28;20048;-80
2023/04/27 09:54:41;;;;;;;1.73;1.35;;;;;;;8.17;61.46;101826.53;6290597;28;20049;-80
2023/04/27 09:57:53;;;;;;;1.42;1.02;;;;;;;8.37;62.13;101826.91;6295307;28;20178;-80
2023/04/27 10:01:04;;;;;;;3.58;0.98;;;;;;;8.54;66.34;101825.56;6290353;28;20045;-80
2023/04/27 10:04:20;;;;;;;2.67;1.55;;;;;;;8.72;61.55;101822.47;6288550;28;20053;-80
2023/04/27 10:07:22;;;;;;;2.80;1.55;;;;;;;8.70;56.39;101831.28;6284620;28;20049;-79
2023/04/27 10:10:23;;;;;;;6.95;2.63;;;;;;;8.67;59.87;101816.47;6292539;28;20425;-79
2023/04/27 10:13:26;;;;;;;8.15;4.50;;;;;;;8.69;62.86;101819.94;6278317;28;20059;-80
2023/04/27 10:16:40;;;;;;;42.25;12.55;;;;;;;8.66;60.30;101827.88;6273739;28;20059;-80
2023/04/27 10:19:53;;;;;;;9.48;2.95;;;;;;;8.57;58.67;101828.97;6282834;28;20045;-84
2023/04/27 10:22:55;;;;;;;5.93;1.83;;;;;;;8.56;58.06;101823.78;6282487;28;20040;-81
2023/04/27 10:26:07;;;;;;;1.88;1.08;;;;;;;8.57;59.97;101818.50;6290653;28;20056;-80
2023/04/27 10:29:09;;;;;;;5.28;1.10;;;;;;;8.66;60.04;101814.75;6291561;28;20052;-80
2023/04/27 10:32:14;;;;;;;3.08;2.22;;;;;;;8.94;59.42;101827.94;6280196;28;20037;-80
2023/04/27 10:35:15;;;;;;;2.60;1.48;;;;;;;9.10;59.80;101828.34;6289862;28;20063;-80
2023/04/27 10:38:19;;;;;;;5.85;1.30;;;;;;;9.09;56.50;101822.25;6288709;28;20049;-80
2023/04/27 10:41:22;;;;;;;5.40;1.40;;;;;;;9.08;55.89;101824.91;6285176;28;20100;-79
2023/04/27 10:44:27;;;;;;;2.45;1.02;;;;;;;9.06;56.67;101817.09;6284776;28;20045;-79
2023/04/27 10:47:38;;;;;;;5.65;1.10;;;;;;;9.14;59.29;101817.72;6275522;28;20162;-80
2023/04/27 10:50:41;;;;;;;1.58;1.13;;;;;;;9.30;55.06;101825.97;6277355;28;20354;-79
2023/04/27 10:53:42;;;;;;;6.85;1.98;;;;;;;9.29;55.40;101821.66;6281053;28;20091;-80
2023/04/27 10:56:44;;;;;;;1.25;1.13;;;;;;;9.47;56.69;101809.72;6285696;28;20049;-80
2023/04/27 10:59:52;;;;;;;3.80;1.70;;;;;;;9.52;56.20;101818.31;6283877;28;20049;-80
2023/04/27 11:02:56;;;;;;;3.22;1.27;;;;;;;9.57;55.13;101805.03;6274501;28;20045;-80
2023/04/27 11:06:03;;;;;;;5.88;1.33;;;;;;;9.52;51.98;101812.19;6287372;28;20298;-80
2023/04/27 11:09:05;;;;;;;1.67;1.20;;;;;;;9.42;54.96;101814.25;6284037;28;20053;-80
2023/04/27 11:12:07;;;;;;;7.65;1.20;;;;;;;9.36;55.46;101809.22;6285795;28;20106;-79
2023/04/27 11:15:10;;;;;;;3.25;1.10;;;;;;;9.43;54.53;101800.22;6299841;28;20051;-79
2023/04/27 11:18:14;;;;;;;4.43;1.00;;;;;;;9.75;53.37;101799.19;6279031;28;20554;-79
2023/04/27 11:21:19;;;;;;;1.50;1.20;;;;;;;9.97;52.84;101807.22;6283631;28;20361;-80
2023/04/27 11:24:20;;;;;;;2.03;1.02;;;;;;;10.12;51.96;101804.03;6286467;28;20047;-81
2023/04/27 11:27:24;;;;;;;1.92;0.98;;;;;;;10.29;52.57;101795.63;6285003;28;20083;-79
2023/04/27 11:30:25;;;;;;;4.40;1.38;;;;;;;10.51;53.85;101793.09;6284699;28;20049;-81
2023/04/27 11:33:28;;;;;;;3.95;1.13;;;;;;;10.63;52.34;101795.28;6280249;28;20053;-80
2023/04/27 11:36:30;;;;;;;3.08;1.17;;;;;;;10.76;50.05;101795.66;6277248;28;20117;-79
2023/04/27 11:39:34;;;;;;;2.13;1.13;;;;;;;10.99;52.89;101793.94;6277152;28;20463;-79
2023/04/27 11:42:35;;;;;;;1.70;1.05;;;;;;;10.95;51.17;101792.38;6275290;28;20049;-80
2023/04/27 11:45:42;;;;;;;1.52;0.90;;;;;;;10.75;50.33;101785.22;6282447;28;20052;-78
2023/04/27 11:48:44;;;;;;;3.78;1.33;;;;;;;10.60;54.94;101782.25;6287469;28;20048;-79
2023/04/27 11:51:47;;;;;;;3.15;1.55;;;;;;;10.73;55.59;101781.78;6275255;28;20072;-78
2023/04/27 11:54:50;;;;;;;2.42;1.30;;;;;;;10.75;50.82;101782.56;6279538;28;20052;-81
2023/04/27 11:57:56;;;;;;;2.88;1.33;;;;;;;10.81;49.24;101777.06;6283157;28;20064;-81
2023/04/27 12:00:58;;;;;;;1.77;1.17;;;;;;;10.73;50.08;101776.53;6282251;28;20052;-80
2023/04/27 12:04:01;;;;;;;3.08;1.58;;;;;;;10.89;52.38;101777.66;6286377;28;20063;-81
2023/04/27 12:07:03;;;;;;;3.10;1.38;;;;;;;11.24;54.00;101785.97;6283922;28;20182;-81
2023/04/27 12:10:06;;;;;;;4.93;1.50;;;;;;;11.58;51.40;101781.06;6288256;28;20411;-85
2023/04/27 12:13:08;;;;;;;2.97;1.63;;;;;;;11.75;48.11;101784.75;6295039;28;20150;-80
2023/04/27 12:16:09;;;;;;;3.42;1.35;;;;;;;11.60;48.38;101781.84;6294713;28;20045;-80
2023/04/27 12:19:12;;;;;;;4.28;1.65;;;;;;;11.25;49.37;101771.88;6287857;28;20056;-80
2023/04/27 12:22:14;;;;;;;2.33;1.13;;;;;;;11.22;49.81;101783.41;6297439;28;20044;-80
2023/04/27 12:25:16;;;;;;;2.72;1.27;;;;;;;11.72;51.30;101777.88;6293828;28;20055;-78
2023/04/27 12:28:19;;;;;;;2.00;1.23;;;;;;;12.14;49.61;101777.84;6297766;28;20128;-80
2023/04/27 12:31:23;;;;;;;3.80;1.50;;;;;;;12.35;49.52;101780.44;6293538;28;20048;-80
2023/04/27 12:34:26;;;;;;;2.03;1.10;;;;;;;12.57;50.40;101775.09;6298254;28;20041;-80
2023/04/27 12:37:27;;;;;;;3.80;1.42;;;;;;;12.53;45.84;101779.63;6291237;28;20048;-80
2023/04/27 12:40:28;;;;;;;1.83;1.23;;;;;;;12.38;46.18;101770.63;6300045;28;20053;-81
2023/04/27 12:43:30;;;;;;;1.92;1.27;;;;;;;12.83;52.12;101777.38;6283930;28;20037;-79
2023/04/27 12:46:31;;;;;;;7.40;1.30;;;;;;;13.12;47.18;101769.88;6293888;28;20059;-78
2023/04/27 12:49:35;;;;;;;1.77;1.15;;;;;;;13.29;47.26;101774.41;6304708;28;20059;-78
2023/04/27 12:52:36;;;;;;;2.35;1.45;;;;;;;13.31;45.82;101772.56;6295947;28;20067;-78
2023/04/27 12:55:38;;;;;;;2.30;1.40;;;;;;;13.33;47.23;101774.16;6296943;28;20131;-78
2023/04/27 12:58:40;;;;;;;2.20;1.30;;;;;;;13.15;44.88;101772.38;6295253;28;20048;-80
2023/04/27 13:01:41;;;;;;;1.67;1.20;;;;;;;12.81;44.13;101778.38;6287269;28;20057;-82
2023/04/27 13:04:45;;;;;;;2.30;1.60;;;;;;;12.97;47.01;101774.09;6285030;28;20056;-80
2023/04/27 13:07:46;;;;;;;2.60;1.35;;;;;;;13.19;45.93;101761.59;6295044;28;20109;-79
2023/04/27 13:10:47;;;;;;;3.92;1.92;;;;;;;13.25;44.31;101775.47;6291771;28;20132;-79
2023/04/27 13:13:49;;;;;;;1.80;1.10;;;;;;;12.82;45.69;101773.03;6294066;28;20056;-80
2023/04/27 13:16:51;;;;;;;4.43;1.40;;;;;;;12.39;45.03;101766.22;6294173;28;20048;-82
2023/04/27 13:19:53;;;;;;;1.20;1.10;;;;;;;12.82;45.63;101759.84;6304096;28;20052;-84
2023/04/27 13:22:55;;;;;;;3.00;1.38;;;;;;;13.33;44.14;101762.75;6294569;28;20041;-81
2023/04/27 13:25:56;;;;;;;2.03;1.33;;;;;;;13.51;44.72;101767.13;6290127;28;20045;-81
2023/04/27 13:28:58;;;;;;;4.00;1.48;;;;;;;13.45;44.75;101762.19;6288912;28;20441;-82
2023/04/27 13:31:59;;;;;;;1.05;0.93;;;;;;;13.44;43.05;101745.47;6290561;28;20040;-81
2023/04/27 13:35:02;;;;;;;4.05;1.60;;;;;;;13.51;42.61;101756.56;6295174;28;20052;-82
2023/04/27 13:38:03;;;;;;;2.42;1.13;;;;;;;13.59;42.54;101762.34;6303526;28;20455;-81
2023/04/27 13:41:06;;;;;;;1.48;1.10;;;;;;;13.96;42.50;101755.19;6298805;28;20075;-82
2023/04/27 13:44:07;;;;;;;2.22;1.30;;;;;;;13.96;40.92;101755.19;6299928;28;20442;-86
2023/04/27 13:47:08;;;;;;;4.40;1.38;;;;;;;13.71;41.89;101751.13;6301099;28;20433;-81
2023/04/27 13:50:12;;;;;;;1.17;1.08;;;;;;;13.31;43.73;101751.44;6290758;28;20451;-80
2023/04/27 13:53:14;;;;;;;3.28;1.33;;;;;;;13.43;44.84;101753.44;6293518;28;20072;-81
2023/04/27 13:56:16;;;;;;;2.92;1.27;;;;;;;13.58;43.16;101749.19;6289329;28;20057;-81
2023/04/27 13:59:17;;;;;;;3.15;1.38;;;;;;;13.44;41.37;101749.88;6292418;28;20052;-82
2023/04/27 14:02:19;;;;;;;3.35;1.30;;;;;;;12.80;45.42;101745.00;6299998;28;20063;-80
2023/04/27 14:05:22;;;;;;;1.58;1.38;;;;;;;13.02;41.90;101735.16;6293108;28;20043;-82
2023/04/27 14:08:23;;;;;;;2.08;1.45;;;;;;;13.30;44.78;101734.72;6302788;28;20451;-82
2023/04/27 14:11:25;;;;;;;3.08;1.35;;;;;;;13.27;42.24;101731.38;6302304;28;20357;-81